sensor_id;sensor_type;location;lat;lon;timestamp;temperature;humidity
51029;DHT22;37054;52.054;8.600;2024-02-23T00:01:04;12.70;60.10
51029;DHT22;37054;52.054;8.600;2024-02-23T00:03:30;12.70;60.10
51029;DHT22;37054;52.054;8.600;2024-02-23T00:05:55;12.70;60.10
51029;DHT22;37054;52.054;8.600;2024-02-23T00:08:21;12.70;58.70
51029;DHT22;37054;52.054;8.600;2024-02-23T00:10:46;12.70;58.70
51029;DHT22;37054;52.054;8.600;2024-02-23T00:13:12;12.70;58.40
51029;DHT22;37054;52.054;8.600;2024-02-23T00:15:38;12.70;58.30
51029;DHT22;37054;52.054;8.600;2024-02-23T00:18:03;12.70;58.90
51029;DHT22;37054;52.054;8.600;2024-02-23T00:20:30;12.70;59.00
51029;DHT22;37054;52.054;8.600;2024-02-23T00:22:55;12.60;58.80
51029;DHT22;37054;52.054;8.600;2024-02-23T00:25:21;12.60;57.90
51029;DHT22;37054;52.054;8.600;2024-02-23T00:27:46;12.50;58.00
51029;DHT22;37054;52.054;8.600;2024-02-23T00:30:13;12.40;59.00
51029;DHT22;37054;52.054;8.600;2024-02-23T00:32:39;12.50;58.90
51029;DHT22;37054;52.054;8.600;2024-02-23T00:35:05;12.40;58.60
51029;DHT22;37054;52.054;8.600;2024-02-23T00:37:30;12.40;59.20
51029;DHT22;37054;52.054;8.600;2024-02-23T00:40:04;12.40;59.90
51029;DHT22;37054;52.054;8.600;2024-02-23T00:42:30;12.30;59.40
51029;DHT22;37054;52.054;8.600;2024-02-23T00:44:56;12.20;59.70
51029;DHT22;37054;52.054;8.600;2024-02-23T00:47:21;12.20;60.50
51029;DHT22;37054;52.054;8.600;2024-02-23T00:49:47;11.90;61.00
51029;DHT22;37054;52.054;8.600;2024-02-23T00:52:12;11.80;61.90
51029;DHT22;37054;52.054;8.600;2024-02-23T00:54:38;11.60;62.20
51029;DHT22;37054;52.054;8.600;2024-02-23T00:57:04;11.40;62.80
51029;DHT22;37054;52.054;8.600;2024-02-23T00:59:29;11.30;63.50
51029;DHT22;37054;52.054;8.600;2024-02-23T01:01:55;11.10;64.20
51029;DHT22;37054;52.054;8.600;2024-02-23T01:04:21;11.00;64.40
51029;DHT22;37054;52.054;8.600;2024-02-23T01:06:47;10.80;64.90
51029;DHT22;37054;52.054;8.600;2024-02-23T01:09:12;10.70;65.30
51029;DHT22;37054;52.054;8.600;2024-02-23T01:11:38;10.70;65.40
51029;DHT22;37054;52.054;8.600;2024-02-23T01:14:04;10.50;65.80
51029;DHT22;37054;52.054;8.600;2024-02-23T01:16:30;10.50;66.00
51029;DHT22;37054;52.054;8.600;2024-02-23T01:18:57;10.40;66.60
51029;DHT22;37054;52.054;8.600;2024-02-23T01:21:23;10.40;66.60
51029;DHT22;37054;52.054;8.600;2024-02-23T01:23:49;10.20;66.70
51029;DHT22;37054;52.054;8.600;2024-02-23T01:26:14;10.20;66.90
51029;DHT22;37054;52.054;8.600;2024-02-23T01:28:40;10.10;67.10
51029;DHT22;37054;52.054;8.600;2024-02-23T01:31:08;10.10;67.40
51029;DHT22;37054;52.054;8.600;2024-02-23T01:33:36;10.00;67.40
51029;DHT22;37054;52.054;8.600;2024-02-23T01:36:04;10.00;67.40
51029;DHT22;37054;52.054;8.600;2024-02-23T01:38:30;9.90;67.60
51029;DHT22;37054;52.054;8.600;2024-02-23T01:41:00;9.90;67.60
51029;DHT22;37054;52.054;8.600;2024-02-23T01:43:26;9.80;67.60
51029;DHT22;37054;52.054;8.600;2024-02-23T01:45:52;9.80;67.80
51029;DHT22;37054;52.054;8.600;2024-02-23T01:48:19;9.70;68.00
51029;DHT22;37054;52.054;8.600;2024-02-23T01:50:44;9.80;67.80
51029;DHT22;37054;52.054;8.600;2024-02-23T01:53:11;9.80;67.90
51029;DHT22;37054;52.054;8.600;2024-02-23T01:55:40;9.70;67.70
51029;DHT22;37054;52.054;8.600;2024-02-23T01:58:06;9.70;67.80
51029;DHT22;37054;52.054;8.600;2024-02-23T02:00:33;9.70;67.80
51029;DHT22;37054;52.054;8.600;2024-02-23T02:02:59;9.70;67.90
51029;DHT22;37054;52.054;8.600;2024-02-23T02:05:25;9.70;67.80
51029;DHT22;37054;52.054;8.600;2024-02-23T02:07:51;9.70;67.70
51029;DHT22;37054;52.054;8.600;2024-02-23T02:10:20;9.70;67.80
51029;DHT22;37054;52.054;8.600;2024-02-23T02:12:46;9.80;67.90
51029;DHT22;37054;52.054;8.600;2024-02-23T02:15:12;9.80;67.70
51029;DHT22;37054;52.054;8.600;2024-02-23T02:17:37;9.70;67.50
51029;DHT22;37054;52.054;8.600;2024-02-23T02:20:03;9.80;67.40
51029;DHT22;37054;52.054;8.600;2024-02-23T02:22:33;9.80;67.40
51029;DHT22;37054;52.054;8.600;2024-02-23T02:24:59;9.70;67.40
51029;DHT22;37054;52.054;8.600;2024-02-23T02:27:24;9.70;67.40
51029;DHT22;37054;52.054;8.600;2024-02-23T02:29:53;9.70;67.30
51029;DHT22;37054;52.054;8.600;2024-02-23T02:32:18;9.70;67.40
51029;DHT22;37054;52.054;8.600;2024-02-23T02:34:43;9.60;67.20
51029;DHT22;37054;52.054;8.600;2024-02-23T02:37:09;9.60;67.30
51029;DHT22;37054;52.054;8.600;2024-02-23T02:39:35;9.60;67.20
51029;DHT22;37054;52.054;8.600;2024-02-23T02:42:02;9.50;66.90
51029;DHT22;37054;52.054;8.600;2024-02-23T02:44:28;9.40;66.80
51029;DHT22;37054;52.054;8.600;2024-02-23T02:46:58;9.40;66.70
51029;DHT22;37054;52.054;8.600;2024-02-23T02:49:24;9.30;67.10
51029;DHT22;37054;52.054;8.600;2024-02-23T02:51:50;9.30;67.50
51029;DHT22;37054;52.054;8.600;2024-02-23T02:54:16;9.40;67.90
51029;DHT22;37054;52.054;8.600;2024-02-23T02:56:46;9.40;68.00
51029;DHT22;37054;52.054;8.600;2024-02-23T02:59:12;9.50;68.00
51029;DHT22;37054;52.054;8.600;2024-02-23T03:01:38;9.50;67.90
51029;DHT22;37054;52.054;8.600;2024-02-23T03:04:04;9.60;67.70
51029;DHT22;37054;52.054;8.600;2024-02-23T03:06:30;9.60;68.00
51029;DHT22;37054;52.054;8.600;2024-02-23T03:08:55;9.70;67.90
51029;DHT22;37054;52.054;8.600;2024-02-23T03:11:21;9.70;67.60
51029;DHT22;37054;52.054;8.600;2024-02-23T03:13:46;9.70;67.80
51029;DHT22;37054;52.054;8.600;2024-02-23T03:16:20;9.80;67.50
51029;DHT22;37054;52.054;8.600;2024-02-23T03:18:46;9.70;67.30
51029;DHT22;37054;52.054;8.600;2024-02-23T03:21:12;9.70;67.20
51029;DHT22;37054;52.054;8.600;2024-02-23T03:23:39;9.70;67.30
51029;DHT22;37054;52.054;8.600;2024-02-23T03:26:07;9.70;67.50
51029;DHT22;37054;52.054;8.600;2024-02-23T03:28:32;9.80;67.60
51029;DHT22;37054;52.054;8.600;2024-02-23T03:30:59;9.80;67.40
51029;DHT22;37054;52.054;8.600;2024-02-23T03:33:25;9.80;67.40
51029;DHT22;37054;52.054;8.600;2024-02-23T03:35:50;9.80;67.10
51029;DHT22;37054;52.054;8.600;2024-02-23T03:38:16;9.90;67.00
51029;DHT22;37054;52.054;8.600;2024-02-23T03:40:42;9.90;67.10
51029;DHT22;37054;52.054;8.600;2024-02-23T03:43:07;9.90;67.10
51029;DHT22;37054;52.054;8.600;2024-02-23T03:45:33;10.00;67.20
51029;DHT22;37054;52.054;8.600;2024-02-23T03:47:59;10.00;66.70
51029;DHT22;37054;52.054;8.600;2024-02-23T03:50:25;10.00;66.80
51029;DHT22;37054;52.054;8.600;2024-02-23T03:52:51;10.10;66.60
51029;DHT22;37054;52.054;8.600;2024-02-23T03:55:16;10.10;66.40
51029;DHT22;37054;52.054;8.600;2024-02-23T03:57:42;10.10;66.50
51029;DHT22;37054;52.054;8.600;2024-02-23T04:00:08;10.20;66.20
51029;DHT22;37054;52.054;8.600;2024-02-23T04:02:34;10.10;66.00
51029;DHT22;37054;52.054;8.600;2024-02-23T04:05:00;10.10;65.90
51029;DHT22;37054;52.054;8.600;2024-02-23T04:07:25;10.10;65.90
51029;DHT22;37054;52.054;8.600;2024-02-23T04:09:51;10.10;65.90
51029;DHT22;37054;52.054;8.600;2024-02-23T04:12:21;10.00;65.40
51029;DHT22;37054;52.054;8.600;2024-02-23T04:14:47;10.00;65.00
51029;DHT22;37054;52.054;8.600;2024-02-23T04:17:12;9.90;64.90
51029;DHT22;37054;52.054;8.600;2024-02-23T04:19:38;9.80;64.90
51029;DHT22;37054;52.054;8.600;2024-02-23T04:22:06;9.80;64.80
51029;DHT22;37054;52.054;8.600;2024-02-23T04:24:39;9.80;64.90
51029;DHT22;37054;52.054;8.600;2024-02-23T04:27:05;9.70;65.40
51029;DHT22;37054;52.054;8.600;2024-02-23T04:29:31;9.70;65.30
51029;DHT22;37054;52.054;8.600;2024-02-23T04:32:00;9.70;65.40
51029;DHT22;37054;52.054;8.600;2024-02-23T04:34:27;9.70;65.50
51029;DHT22;37054;52.054;8.600;2024-02-23T04:36:52;9.70;65.00
51029;DHT22;37054;52.054;8.600;2024-02-23T04:39:18;9.60;64.60
51029;DHT22;37054;52.054;8.600;2024-02-23T04:41:43;9.50;64.50
51029;DHT22;37054;52.054;8.600;2024-02-23T04:44:09;9.50;64.70
51029;DHT22;37054;52.054;8.600;2024-02-23T04:46:34;9.50;64.70
51029;DHT22;37054;52.054;8.600;2024-02-23T04:49:01;9.40;64.90
51029;DHT22;37054;52.054;8.600;2024-02-23T04:51:26;9.30;65.00
51029;DHT22;37054;52.054;8.600;2024-02-23T04:53:52;9.30;65.00
51029;DHT22;37054;52.054;8.600;2024-02-23T04:56:18;9.30;65.00
51029;DHT22;37054;52.054;8.600;2024-02-23T04:58:44;9.30;65.40
51029;DHT22;37054;52.054;8.600;2024-02-23T05:01:09;9.40;65.40
51029;DHT22;37054;52.054;8.600;2024-02-23T05:03:36;9.40;65.40
51029;DHT22;37054;52.054;8.600;2024-02-23T05:06:02;9.50;65.10
51029;DHT22;37054;52.054;8.600;2024-02-23T05:08:28;9.60;65.00
51029;DHT22;37054;52.054;8.600;2024-02-23T05:10:55;9.60;65.30
51029;DHT22;37054;52.054;8.600;2024-02-23T05:13:21;9.70;64.90
51029;DHT22;37054;52.054;8.600;2024-02-23T05:15:47;9.80;65.00
51029;DHT22;37054;52.054;8.600;2024-02-23T05:18:12;9.80;64.90
51029;DHT22;37054;52.054;8.600;2024-02-23T05:20:37;9.90;64.80
51029;DHT22;37054;52.054;8.600;2024-02-23T05:23:03;10.00;63.80
51029;DHT22;37054;52.054;8.600;2024-02-23T05:25:29;10.00;63.40
51029;DHT22;37054;52.054;8.600;2024-02-23T05:27:54;10.00;63.00
51029;DHT22;37054;52.054;8.600;2024-02-23T05:30:20;10.00;63.00
51029;DHT22;37054;52.054;8.600;2024-02-23T05:32:45;10.00;63.20
51029;DHT22;37054;52.054;8.600;2024-02-23T05:35:12;10.10;62.70
51029;DHT22;37054;52.054;8.600;2024-02-23T05:37:37;10.10;62.70
51029;DHT22;37054;52.054;8.600;2024-02-23T05:40:04;10.10;62.20
51029;DHT22;37054;52.054;8.600;2024-02-23T05:42:32;10.10;62.40
51029;DHT22;37054;52.054;8.600;2024-02-23T05:44:58;10.10;62.70
51029;DHT22;37054;52.054;8.600;2024-02-23T05:47:23;10.10;62.60
51029;DHT22;37054;52.054;8.600;2024-02-23T05:49:50;10.20;62.40
51029;DHT22;37054;52.054;8.600;2024-02-23T05:52:16;10.10;62.90
51029;DHT22;37054;52.054;8.600;2024-02-23T05:54:42;10.20;63.20
51029;DHT22;37054;52.054;8.600;2024-02-23T05:57:07;10.10;63.10
51029;DHT22;37054;52.054;8.600;2024-02-23T05:59:33;10.20;63.30
51029;DHT22;37054;52.054;8.600;2024-02-23T06:01:59;10.20;62.90
51029;DHT22;37054;52.054;8.600;2024-02-23T06:04:24;10.30;62.80
51029;DHT22;37054;52.054;8.600;2024-02-23T06:06:50;10.20;62.60
51029;DHT22;37054;52.054;8.600;2024-02-23T06:09:16;10.20;62.70
51029;DHT22;37054;52.054;8.600;2024-02-23T06:11:42;10.20;62.30
51029;DHT22;37054;52.054;8.600;2024-02-23T06:14:08;10.20;62.20
51029;DHT22;37054;52.054;8.600;2024-02-23T06:16:34;10.20;61.80
51029;DHT22;37054;52.054;8.600;2024-02-23T06:18:59;10.20;62.30
51029;DHT22;37054;52.054;8.600;2024-02-23T06:21:25;10.20;61.80
51029;DHT22;37054;52.054;8.600;2024-02-23T06:23:50;10.10;61.60
51029;DHT22;37054;52.054;8.600;2024-02-23T06:26:16;10.10;61.50
51029;DHT22;37054;52.054;8.600;2024-02-23T06:28:42;10.00;61.40
51029;DHT22;37054;52.054;8.600;2024-02-23T06:31:08;10.00;61.90
51029;DHT22;37054;52.054;8.600;2024-02-23T06:33:35;9.90;62.10
51029;DHT22;37054;52.054;8.600;2024-02-23T06:36:01;9.90;61.20
51029;DHT22;37054;52.054;8.600;2024-02-23T06:38:27;9.80;61.60
51029;DHT22;37054;52.054;8.600;2024-02-23T06:40:52;9.80;61.80
51029;DHT22;37054;52.054;8.600;2024-02-23T06:43:18;9.70;62.10
51029;DHT22;37054;52.054;8.600;2024-02-23T06:45:44;9.80;62.10
51029;DHT22;37054;52.054;8.600;2024-02-23T06:48:10;9.80;61.80
51029;DHT22;37054;52.054;8.600;2024-02-23T06:50:36;9.70;62.20
51029;DHT22;37054;52.054;8.600;2024-02-23T06:53:01;9.70;61.90
51029;DHT22;37054;52.054;8.600;2024-02-23T06:55:27;9.60;61.80
51029;DHT22;37054;52.054;8.600;2024-02-23T06:57:54;9.60;62.10
51029;DHT22;37054;52.054;8.600;2024-02-23T07:00:20;9.50;62.20
51029;DHT22;37054;52.054;8.600;2024-02-23T07:02:46;9.50;62.10
51029;DHT22;37054;52.054;8.600;2024-02-23T07:05:12;9.50;62.10
51029;DHT22;37054;52.054;8.600;2024-02-23T07:07:38;9.60;62.60
51029;DHT22;37054;52.054;8.600;2024-02-23T07:10:06;9.70;62.70
51029;DHT22;37054;52.054;8.600;2024-02-23T07:12:31;10.00;63.90
51029;DHT22;37054;52.054;8.600;2024-02-23T07:14:57;10.30;63.70
51029;DHT22;37054;52.054;8.600;2024-02-23T07:17:23;10.60;63.30
51029;DHT22;37054;52.054;8.600;2024-02-23T07:19:48;10.90;63.70
51029;DHT22;37054;52.054;8.600;2024-02-23T07:22:15;11.30;63.60
51029;DHT22;37054;52.054;8.600;2024-02-23T07:24:43;11.70;63.60
51029;DHT22;37054;52.054;8.600;2024-02-23T07:27:09;12.00;63.30
51029;DHT22;37054;52.054;8.600;2024-02-23T07:29:34;12.30;62.30
51029;DHT22;37054;52.054;8.600;2024-02-23T07:32:00;12.70;61.30
51029;DHT22;37054;52.054;8.600;2024-02-23T07:34:25;12.90;60.90
51029;DHT22;37054;52.054;8.600;2024-02-23T07:36:54;13.20;61.30
51029;DHT22;37054;52.054;8.600;2024-02-23T07:39:20;13.60;60.10
51029;DHT22;37054;52.054;8.600;2024-02-23T07:41:47;13.90;60.60
51029;DHT22;37054;52.054;8.600;2024-02-23T07:44:12;14.20;60.40
51029;DHT22;37054;52.054;8.600;2024-02-23T07:46:38;14.50;59.90
51029;DHT22;37054;52.054;8.600;2024-02-23T07:49:04;14.70;59.00
51029;DHT22;37054;52.054;8.600;2024-02-23T07:51:31;15.00;57.60
51029;DHT22;37054;52.054;8.600;2024-02-23T07:53:57;15.30;55.90
51029;DHT22;37054;52.054;8.600;2024-02-23T07:56:22;15.50;54.60
51029;DHT22;37054;52.054;8.600;2024-02-23T07:58:48;15.70;55.20
51029;DHT22;37054;52.054;8.600;2024-02-23T08:01:16;16.00;55.10
51029;DHT22;37054;52.054;8.600;2024-02-23T08:03:42;16.10;52.70
51029;DHT22;37054;52.054;8.600;2024-02-23T08:06:07;16.30;54.50
51029;DHT22;37054;52.054;8.600;2024-02-23T08:08:33;16.60;53.90
51029;DHT22;37054;52.054;8.600;2024-02-23T08:11:04;16.80;51.70
51029;DHT22;37054;52.054;8.600;2024-02-23T08:13:29;17.00;53.70
51029;DHT22;37054;52.054;8.600;2024-02-23T08:15:55;17.30;51.10
51029;DHT22;37054;52.054;8.600;2024-02-23T08:18:20;17.40;50.10
51029;DHT22;37054;52.054;8.600;2024-02-23T08:20:47;17.60;51.50
51029;DHT22;37054;52.054;8.600;2024-02-23T08:23:13;17.70;48.10
51029;DHT22;37054;52.054;8.600;2024-02-23T08:25:38;17.80;49.10
51029;DHT22;37054;52.054;8.600;2024-02-23T08:28:04;18.10;48.30
51029;DHT22;37054;52.054;8.600;2024-02-23T08:30:30;18.20;45.70
51029;DHT22;37054;52.054;8.600;2024-02-23T08:32:55;18.20;44.20
51029;DHT22;37054;52.054;8.600;2024-02-23T08:35:21;18.30;42.80
51029;DHT22;37054;52.054;8.600;2024-02-23T08:37:46;18.50;43.50
51029;DHT22;37054;52.054;8.600;2024-02-23T08:40:12;18.60;42.40
51029;DHT22;37054;52.054;8.600;2024-02-23T08:42:38;18.70;41.30
51029;DHT22;37054;52.054;8.600;2024-02-23T08:45:04;18.90;42.60
51029;DHT22;37054;52.054;8.600;2024-02-23T08:47:29;19.10;41.00
51029;DHT22;37054;52.054;8.600;2024-02-23T08:49:58;19.10;40.20
51029;DHT22;37054;52.054;8.600;2024-02-23T08:52:24;19.00;38.70
51029;DHT22;37054;52.054;8.600;2024-02-23T08:54:50;18.80;39.30
51029;DHT22;37054;52.054;8.600;2024-02-23T08:57:16;18.70;39.20
51029;DHT22;37054;52.054;8.600;2024-02-23T08:59:45;18.30;37.70
51029;DHT22;37054;52.054;8.600;2024-02-23T09:02:10;18.00;38.70
51029;DHT22;37054;52.054;8.600;2024-02-23T09:04:36;17.80;38.70
51029;DHT22;37054;52.054;8.600;2024-02-23T09:07:02;17.80;39.80
51029;DHT22;37054;52.054;8.600;2024-02-23T09:09:27;17.90;39.70
51029;DHT22;37054;52.054;8.600;2024-02-23T09:11:52;17.90;37.40
51029;DHT22;37054;52.054;8.600;2024-02-23T09:14:18;17.70;36.60
51029;DHT22;37054;52.054;8.600;2024-02-23T09:16:44;17.70;37.30
51029;DHT22;37054;52.054;8.600;2024-02-23T09:19:11;17.60;37.30
51029;DHT22;37054;52.054;8.600;2024-02-23T09:21:37;17.50;36.40
51029;DHT22;37054;52.054;8.600;2024-02-23T09:24:03;17.20;37.70
51029;DHT22;37054;52.054;8.600;2024-02-23T09:26:29;17.00;37.20
51029;DHT22;37054;52.054;8.600;2024-02-23T09:28:55;16.70;37.30
51029;DHT22;37054;52.054;8.600;2024-02-23T09:31:20;16.30;37.70
51029;DHT22;37054;52.054;8.600;2024-02-23T09:33:46;16.00;38.80
51029;DHT22;37054;52.054;8.600;2024-02-23T09:36:12;15.80;39.30
51029;DHT22;37054;52.054;8.600;2024-02-23T09:38:37;15.70;39.90
51029;DHT22;37054;52.054;8.600;2024-02-23T09:41:03;15.50;40.10
51029;DHT22;37054;52.054;8.600;2024-02-23T09:43:29;15.30;40.00
51029;DHT22;37054;52.054;8.600;2024-02-23T09:45:58;15.10;39.90
51029;DHT22;37054;52.054;8.600;2024-02-23T09:48:24;15.00;40.80
51029;DHT22;37054;52.054;8.600;2024-02-23T09:50:52;14.90;41.30
51029;DHT22;37054;52.054;8.600;2024-02-23T09:53:19;14.90;40.00
51029;DHT22;37054;52.054;8.600;2024-02-23T09:55:45;14.70;40.50
51029;DHT22;37054;52.054;8.600;2024-02-23T09:58:12;14.60;40.90
51029;DHT22;37054;52.054;8.600;2024-02-23T10:00:38;14.50;40.70
51029;DHT22;37054;52.054;8.600;2024-02-23T10:03:04;14.40;40.70
51029;DHT22;37054;52.054;8.600;2024-02-23T10:05:31;14.30;41.50
51029;DHT22;37054;52.054;8.600;2024-02-23T10:07:59;14.40;41.30
51029;DHT22;37054;52.054;8.600;2024-02-23T10:10:29;14.30;41.50
51029;DHT22;37054;52.054;8.600;2024-02-23T10:12:57;14.20;41.00
51029;DHT22;37054;52.054;8.600;2024-02-23T10:15:22;14.10;41.50
51029;DHT22;37054;52.054;8.600;2024-02-23T10:17:48;14.10;41.40
51029;DHT22;37054;52.054;8.600;2024-02-23T10:20:14;14.00;41.00
51029;DHT22;37054;52.054;8.600;2024-02-23T10:22:39;13.90;41.80
51029;DHT22;37054;52.054;8.600;2024-02-23T10:25:05;13.90;41.90
51029;DHT22;37054;52.054;8.600;2024-02-23T10:27:31;13.90;42.10
51029;DHT22;37054;52.054;8.600;2024-02-23T10:29:56;13.90;42.10
51029;DHT22;37054;52.054;8.600;2024-02-23T10:32:23;13.90;41.80
51029;DHT22;37054;52.054;8.600;2024-02-23T10:34:49;13.90;42.10
51029;DHT22;37054;52.054;8.600;2024-02-23T10:37:16;13.90;42.40
51029;DHT22;37054;52.054;8.600;2024-02-23T10:39:42;14.00;42.40
51029;DHT22;37054;52.054;8.600;2024-02-23T10:42:09;14.10;42.40
51029;DHT22;37054;52.054;8.600;2024-02-23T10:44:35;14.10;42.10
51029;DHT22;37054;52.054;8.600;2024-02-23T10:47:02;14.10;41.70
51029;DHT22;37054;52.054;8.600;2024-02-23T10:49:29;14.20;41.20
51029;DHT22;37054;52.054;8.600;2024-02-23T10:51:56;14.20;41.40
51029;DHT22;37054;52.054;8.600;2024-02-23T10:54:22;14.20;41.60
51029;DHT22;37054;52.054;8.600;2024-02-23T10:56:50;14.20;42.10
51029;DHT22;37054;52.054;8.600;2024-02-23T10:59:17;14.30;41.30
51029;DHT22;37054;52.054;8.600;2024-02-23T11:01:54;14.20;41.30
51029;DHT22;37054;52.054;8.600;2024-02-23T11:04:23;14.10;40.80
51029;DHT22;37054;52.054;8.600;2024-02-23T11:06:50;14.10;40.80
51029;DHT22;37054;52.054;8.600;2024-02-23T11:09:16;14.00;41.20
51029;DHT22;37054;52.054;8.600;2024-02-23T11:11:52;14.10;41.60
51029;DHT22;37054;52.054;8.600;2024-02-23T11:14:18;14.20;41.80
51029;DHT22;37054;52.054;8.600;2024-02-23T11:16:43;14.40;41.70
51029;DHT22;37054;52.054;8.600;2024-02-23T11:19:09;14.50;41.60
51029;DHT22;37054;52.054;8.600;2024-02-23T11:21:38;14.70;40.80
51029;DHT22;37054;52.054;8.600;2024-02-23T11:24:04;14.70;41.20
51029;DHT22;37054;52.054;8.600;2024-02-23T11:26:30;14.80;41.00
51029;DHT22;37054;52.054;8.600;2024-02-23T11:28:58;15.00;40.70
51029;DHT22;37054;52.054;8.600;2024-02-23T11:31:29;15.00;40.70
51029;DHT22;37054;52.054;8.600;2024-02-23T11:33:55;15.10;40.40
51029;DHT22;37054;52.054;8.600;2024-02-23T11:38:53;15.20;40.00
51029;DHT22;37054;52.054;8.600;2024-02-23T11:41:21;15.20;40.10
51029;DHT22;37054;52.054;8.600;2024-02-23T11:43:47;15.30;39.80
51029;DHT22;37054;52.054;8.600;2024-02-23T11:46:18;15.20;39.30
51029;DHT22;37054;52.054;8.600;2024-02-23T11:48:44;15.10;39.50
51029;DHT22;37054;52.054;8.600;2024-02-23T11:51:15;15.10;39.30
51029;DHT22;37054;52.054;8.600;2024-02-23T11:53:40;14.90;39.50
51029;DHT22;37054;52.054;8.600;2024-02-23T11:56:06;14.90;39.90
51029;DHT22;37054;52.054;8.600;2024-02-23T11:58:33;14.90;40.10
51029;DHT22;37054;52.054;8.600;2024-02-23T12:00:59;14.90;40.00
51029;DHT22;37054;52.054;8.600;2024-02-23T12:03:30;14.90;39.60
51029;DHT22;37054;52.054;8.600;2024-02-23T12:06:07;14.90;39.90
51029;DHT22;37054;52.054;8.600;2024-02-23T12:08:33;14.90;40.40
51029;DHT22;37054;52.054;8.600;2024-02-23T12:11:03;15.00;40.50
51029;DHT22;37054;52.054;8.600;2024-02-23T12:13:29;15.00;40.30
51029;DHT22;37054;52.054;8.600;2024-02-23T12:15:55;15.10;40.70
51029;DHT22;37054;52.054;8.600;2024-02-23T12:18:25;15.20;40.60
51029;DHT22;37054;52.054;8.600;2024-02-23T12:21:00;15.30;40.10
51029;DHT22;37054;52.054;8.600;2024-02-23T12:23:39;15.30;39.10
51029;DHT22;37054;52.054;8.600;2024-02-23T12:26:04;15.30;39.70
51029;DHT22;37054;52.054;8.600;2024-02-23T12:28:30;15.40;39.20
51029;DHT22;37054;52.054;8.600;2024-02-23T12:31:00;15.40;38.70
51029;DHT22;37054;52.054;8.600;2024-02-23T12:33:31;15.50;38.60
51029;DHT22;37054;52.054;8.600;2024-02-23T12:35:58;15.50;38.40
51029;DHT22;37054;52.054;8.600;2024-02-23T12:38:24;15.50;38.30
51029;DHT22;37054;52.054;8.600;2024-02-23T12:40:50;15.40;38.60
51029;DHT22;37054;52.054;8.600;2024-02-23T12:43:16;15.40;38.20
51029;DHT22;37054;52.054;8.600;2024-02-23T12:45:42;15.40;38.40
51029;DHT22;37054;52.054;8.600;2024-02-23T12:48:09;15.50;38.90
51029;DHT22;37054;52.054;8.600;2024-02-23T12:50:35;15.50;38.60
51029;DHT22;37054;52.054;8.600;2024-02-23T12:53:00;15.50;38.30
51029;DHT22;37054;52.054;8.600;2024-02-23T12:55:26;15.40;37.60
51029;DHT22;37054;52.054;8.600;2024-02-23T12:57:52;15.30;38.00
51029;DHT22;37054;52.054;8.600;2024-02-23T13:00:17;15.30;38.70
51029;DHT22;37054;52.054;8.600;2024-02-23T13:02:43;15.40;38.40
51029;DHT22;37054;52.054;8.600;2024-02-23T13:05:08;15.60;38.70
51029;DHT22;37054;52.054;8.600;2024-02-23T13:07:34;15.70;38.70
51029;DHT22;37054;52.054;8.600;2024-02-23T13:10:00;15.80;38.60
51029;DHT22;37054;52.054;8.600;2024-02-23T13:12:25;15.80;38.80
51029;DHT22;37054;52.054;8.600;2024-02-23T13:14:51;16.00;38.30
51029;DHT22;37054;52.054;8.600;2024-02-23T13:17:17;16.00;37.90
51029;DHT22;37054;52.054;8.600;2024-02-23T13:19:43;16.10;37.90
51029;DHT22;37054;52.054;8.600;2024-02-23T13:22:08;16.20;37.90
51029;DHT22;37054;52.054;8.600;2024-02-23T13:24:34;16.20;37.40
51029;DHT22;37054;52.054;8.600;2024-02-23T13:27:00;16.30;36.80
51029;DHT22;37054;52.054;8.600;2024-02-23T13:29:25;16.20;37.20
51029;DHT22;37054;52.054;8.600;2024-02-23T13:31:51;16.20;36.80
51029;DHT22;37054;52.054;8.600;2024-02-23T13:34:16;16.20;37.10
51029;DHT22;37054;52.054;8.600;2024-02-23T13:36:43;16.20;36.90
51029;DHT22;37054;52.054;8.600;2024-02-23T13:39:09;16.10;37.30
51029;DHT22;37054;52.054;8.600;2024-02-23T13:41:35;16.20;37.60
51029;DHT22;37054;52.054;8.600;2024-02-23T13:44:00;16.20;37.20
51029;DHT22;37054;52.054;8.600;2024-02-23T13:46:26;16.10;36.90
51029;DHT22;37054;52.054;8.600;2024-02-23T13:49:04;16.20;37.50
51029;DHT22;37054;52.054;8.600;2024-02-23T13:51:31;16.10;37.00
51029;DHT22;37054;52.054;8.600;2024-02-23T13:53:57;16.00;37.10
51029;DHT22;37054;52.054;8.600;2024-02-23T13:56:22;15.90;37.30
51029;DHT22;37054;52.054;8.600;2024-02-23T13:58:48;15.80;37.60
51029;DHT22;37054;52.054;8.600;2024-02-23T14:01:14;15.70;37.90
51029;DHT22;37054;52.054;8.600;2024-02-23T14:03:40;15.70;37.90
51029;DHT22;37054;52.054;8.600;2024-02-23T14:06:05;15.60;38.40
51029;DHT22;37054;52.054;8.600;2024-02-23T14:08:32;15.70;38.60
51029;DHT22;37054;52.054;8.600;2024-02-23T14:11:00;15.70;38.50
51029;DHT22;37054;52.054;8.600;2024-02-23T14:13:25;15.70;38.40
51029;DHT22;37054;52.054;8.600;2024-02-23T14:15:51;15.50;40.50
51029;DHT22;37054;52.054;8.600;2024-02-23T14:18:17;15.20;42.60
51029;DHT22;37054;52.054;8.600;2024-02-23T14:20:42;15.10;43.70
51029;DHT22;37054;52.054;8.600;2024-02-23T14:23:08;14.70;46.20
51029;DHT22;37054;52.054;8.600;2024-02-23T14:25:33;14.30;49.50
51029;DHT22;37054;52.054;8.600;2024-02-23T14:27:59;13.80;52.70
51029;DHT22;37054;52.054;8.600;2024-02-23T14:30:24;13.50;54.60
51029;DHT22;37054;52.054;8.600;2024-02-23T14:32:50;13.20;56.50
51029;DHT22;37054;52.054;8.600;2024-02-23T14:35:15;13.20;57.30
51029;DHT22;37054;52.054;8.600;2024-02-23T14:37:41;13.10;58.30
51029;DHT22;37054;52.054;8.600;2024-02-23T14:40:07;13.00;59.30
51029;DHT22;37054;52.054;8.600;2024-02-23T14:42:33;13.00;59.30
51029;DHT22;37054;52.054;8.600;2024-02-23T14:44:59;13.00;59.80
51029;DHT22;37054;52.054;8.600;2024-02-23T14:47:24;13.00;60.60
51029;DHT22;37054;52.054;8.600;2024-02-23T14:49:50;13.00;60.60
51029;DHT22;37054;52.054;8.600;2024-02-23T14:52:15;13.00;59.90
51029;DHT22;37054;52.054;8.600;2024-02-23T14:54:41;12.90;59.70
51029;DHT22;37054;52.054;8.600;2024-02-23T14:57:06;12.90;60.00
51029;DHT22;37054;52.054;8.600;2024-02-23T14:59:33;12.80;59.80
51029;DHT22;37054;52.054;8.600;2024-02-23T15:02:05;12.80;59.90
51029;DHT22;37054;52.054;8.600;2024-02-23T15:04:31;12.80;60.10
51029;DHT22;37054;52.054;8.600;2024-02-23T15:06:57;12.80;60.60
51029;DHT22;37054;52.054;8.600;2024-02-23T15:09:22;12.80;60.70
51029;DHT22;37054;52.054;8.600;2024-02-23T15:11:48;12.70;60.50
51029;DHT22;37054;52.054;8.600;2024-02-23T15:14:13;12.70;60.90
51029;DHT22;37054;52.054;8.600;2024-02-23T15:16:40;12.70;60.90
51029;DHT22;37054;52.054;8.600;2024-02-23T15:19:06;12.70;61.30
51029;DHT22;37054;52.054;8.600;2024-02-23T15:21:31;12.70;61.60
51029;DHT22;37054;52.054;8.600;2024-02-23T15:23:57;12.70;61.90
51029;DHT22;37054;52.054;8.600;2024-02-23T15:26:22;12.70;62.30
51029;DHT22;37054;52.054;8.600;2024-02-23T15:28:48;12.70;62.20
51029;DHT22;37054;52.054;8.600;2024-02-23T15:31:13;12.70;62.20